createdAt,value
2018-07-31T00:02:02.674Z,6.83
2018-07-31T00:07:07.290Z,7.23
2018-07-31T00:12:10.179Z,6.90
2018-07-31T00:17:13.123Z,8.50
2018-07-31T00:22:16.451Z,8.60
2018-07-31T00:27:19.577Z,7.60
2018-07-31T00:32:23.119Z,7.37
2018-07-31T00:37:26.371Z,8.07
2018-07-31T00:42:29.226Z,7.23
2018-07-31T00:47:34.038Z,8.10
2018-07-31T00:52:37.978Z,7.20
2018-07-31T00:57:41.511Z,7.37
2018-07-31T01:02:45.486Z,7.10
2018-07-31T01:07:48.498Z,7.10
2018-07-31T01:12:51.534Z,8.27
2018-07-31T01:17:55.035Z,8.90
2018-07-31T01:22:58.048Z,8.43
2018-07-31T01:28:01.043Z,8.37
2018-07-31T01:33:04.802Z,7.50
2018-07-31T01:38:07.623Z,7.87
2018-07-31T01:43:10.556Z,7.33
2018-07-31T01:48:13.878Z,6.73
2018-07-31T01:53:16.754Z,6.07
2018-07-31T01:58:19.612Z,7.17
2018-07-31T02:03:23.431Z,7.77
2018-07-31T02:08:26.551Z,6.40
2018-07-31T02:13:29.670Z,7.23
2018-07-31T02:18:32.980Z,6.73
2018-07-31T02:23:35.848Z,6.80
2018-07-31T02:28:38.739Z,10.27
2018-07-31T02:33:42.298Z,6.70
2018-07-31T02:38:45.495Z,8.17
2018-07-31T02:43:48.966Z,8.07
2018-07-31T02:48:53.159Z,7.23
2018-07-31T02:53:56.317Z,7.90
2018-07-31T02:58:59.486Z,6.13
2018-07-31T03:04:02.854Z,6.73
2018-07-31T03:09:07.372Z,7.37
2018-07-31T03:14:10.627Z,6.87
2018-07-31T03:19:14.127Z,7.10
2018-07-31T03:24:17.222Z,7.83
2018-07-31T03:29:20.536Z,8.30
2018-07-31T03:34:23.800Z,7.30
2018-07-31T03:39:27.277Z,8.00
2018-07-31T03:44:31.089Z,6.63
2018-07-31T03:49:35.978Z,7.97
2018-07-31T03:54:38.888Z,7.03
2018-07-31T03:59:44.358Z,6.97
2018-07-31T04:04:49.119Z,6.93
2018-07-31T04:09:53.511Z,7.30
2018-07-31T04:15:01.591Z,7.00
2018-07-31T04:20:05.266Z,6.83
2018-07-31T04:25:08.430Z,7.30
2018-07-31T04:30:12.034Z,6.70
2018-07-31T04:35:16.442Z,7.47
2018-07-31T04:40:19.652Z,7.00
2018-07-31T04:45:23.222Z,7.90
2018-07-31T04:50:26.696Z,7.77
2018-07-31T04:55:29.696Z,7.80
2018-07-31T05:00:33.082Z,6.43
2018-07-31T05:05:35.923Z,7.13
2018-07-31T05:10:48.880Z,6.83
2018-07-31T05:15:53.087Z,6.33
2018-07-31T05:20:56.038Z,6.20
2018-07-31T05:25:59.350Z,7.10
2018-07-31T05:31:02.187Z,6.67
2018-07-31T05:36:05.278Z,7.03
2018-07-31T05:41:08.179Z,6.33
2018-07-31T05:46:11.035Z,6.40
2018-07-31T05:51:14.314Z,6.73
2018-07-31T05:56:18.863Z,7.57
2018-07-31T06:01:22.099Z,7.23
2018-07-31T06:06:25.056Z,8.20
2018-07-31T06:11:27.897Z,7.00
2018-07-31T06:16:30.714Z,7.70
2018-07-31T06:21:36.786Z,5.57
2018-07-31T06:26:39.686Z,6.63
2018-07-31T06:31:42.552Z,8.43
2018-07-31T06:36:45.447Z,6.20
2018-07-31T06:41:48.259Z,7.47
2018-07-31T06:46:51.095Z,8.00
2018-07-31T06:51:55.027Z,6.90
2018-07-31T06:56:57.864Z,6.80
2018-07-31T07:02:00.740Z,6.53
2018-07-31T07:07:03.567Z,7.03
2018-07-31T07:12:06.402Z,6.93
2018-07-31T07:17:09.206Z,7.53
2018-07-31T07:22:12.511Z,6.00
2018-07-31T07:27:15.615Z,6.50
2018-07-31T07:32:18.732Z,7.27
2018-07-31T07:37:23.810Z,6.47
2018-07-31T07:42:34.119Z,7.00
2018-07-31T07:47:37.887Z,6.53
2018-07-31T07:52:41.884Z,6.70
2018-07-31T07:57:45.060Z,7.33
2018-07-31T08:02:47.877Z,7.20
2018-07-31T08:07:50.731Z,6.90
2018-07-31T08:12:57.909Z,8.07
2018-07-31T08:18:01.630Z,6.87
2018-07-31T08:23:04.709Z,7.13
2018-07-31T08:28:07.838Z,6.97
2018-07-31T08:33:10.649Z,6.87
2018-07-31T08:38:13.710Z,7.10
2018-07-31T08:43:16.543Z,6.77
2018-07-31T08:48:19.372Z,7.23
2018-07-31T08:53:22.472Z,6.50
2018-07-31T08:58:30.949Z,7.43
2018-07-31T09:03:34.746Z,7.07
2018-07-31T09:08:37.662Z,7.10
2018-07-31T09:13:43.281Z,6.73
2018-07-31T09:18:47.556Z,6.23
2018-07-31T09:23:50.770Z,7.10
2018-07-31T09:28:53.582Z,8.10
2018-07-31T09:33:56.607Z,7.13
2018-07-31T09:38:59.509Z,6.87
2018-07-31T09:44:03.369Z,7.23
2018-07-31T09:49:07.003Z,7.33
2018-07-31T09:54:09.989Z,7.43
2018-07-31T09:59:12.934Z,6.87
2018-07-31T10:04:21.548Z,9.00
2018-07-31T10:09:30.579Z,8.47
2018-07-31T10:14:34.578Z,6.90
2018-07-31T10:19:37.607Z,8.37
2018-07-31T10:24:40.892Z,6.60
2018-07-31T10:29:43.834Z,7.00
2018-07-31T10:34:47.327Z,6.43
2018-07-31T10:39:50.766Z,6.63
2018-07-31T10:44:53.571Z,8.07
2018-07-31T10:49:56.523Z,7.50
2018-07-31T10:55:00.872Z,8.03
2018-07-31T11:00:04.233Z,7.33
2018-07-31T11:05:08.346Z,6.80
2018-07-31T11:10:12.414Z,6.30
2018-07-31T11:15:15.361Z,7.60
2018-07-31T11:20:18.325Z,7.43
2018-07-31T11:25:21.207Z,7.47
2018-07-31T11:30:24.066Z,7.07
2018-07-31T11:35:28.219Z,7.40
2018-07-31T11:40:31.871Z,8.00
2018-07-31T11:45:35.322Z,7.63
2018-07-31T11:50:38.164Z,8.17
2018-07-31T11:55:42.014Z,7.27
2018-07-31T12:00:44.909Z,8.33
2018-07-31T12:05:47.853Z,8.37
2018-07-31T12:10:51.094Z,8.43
2018-07-31T12:15:53.961Z,8.20
2018-07-31T12:20:56.880Z,8.20
2018-07-31T12:25:59.983Z,7.50
2018-07-31T12:31:02.856Z,8.33
2018-07-31T12:36:06.114Z,7.67
2018-07-31T12:41:09.075Z,7.40
2018-07-31T12:46:12.179Z,6.37
2018-07-31T12:51:15.086Z,7.57
2018-07-31T12:56:18.985Z,8.20
2018-07-31T13:01:21.939Z,8.80
2018-07-31T13:06:25.036Z,8.07
2018-07-31T13:11:28.037Z,10.17
2018-07-31T13:16:32.391Z,7.73
2018-07-31T13:21:35.253Z,7.30
2018-07-31T13:26:38.713Z,8.00
2018-07-31T13:31:41.539Z,8.83
2018-07-31T13:36:44.588Z,10.00
2018-07-31T13:41:47.517Z,8.00
2018-07-31T13:46:50.939Z,8.07
2018-07-31T13:51:53.881Z,9.60
2018-07-31T13:57:01.768Z,10.20
2018-07-31T14:02:05.820Z,9.47
2018-07-31T14:07:08.733Z,9.50
2018-07-31T14:12:16.291Z,7.60
2018-07-31T14:17:19.986Z,6.70
2018-07-31T14:22:22.803Z,7.20
2018-07-31T14:27:25.660Z,7.50
2018-07-31T14:32:28.445Z,7.43
2018-07-31T14:37:31.427Z,5.43
2018-07-31T14:42:34.312Z,4.90
2018-07-31T14:47:37.184Z,6.57
2018-07-31T14:52:40.283Z,5.40
2018-07-31T14:57:43.276Z,3.67
2018-07-31T15:02:46.218Z,4.07
2018-07-31T15:07:49.062Z,4.80
2018-07-31T15:12:52.164Z,3.43
2018-07-31T15:17:55.003Z,3.70
2018-07-31T15:23:02.527Z,4.40
2018-07-31T15:28:10.368Z,7.30
2018-07-31T15:33:14.199Z,6.10
2018-07-31T15:38:17.077Z,6.60
2018-07-31T15:43:19.906Z,6.20
2018-07-31T15:48:22.710Z,6.90
2018-07-31T15:53:25.523Z,6.40
2018-07-31T15:58:28.738Z,5.90
2018-07-31T16:03:31.867Z,6.40
2018-07-31T16:08:38.698Z,5.80
2018-07-31T16:13:42.011Z,5.67
2018-07-31T16:18:44.989Z,5.00
2018-07-31T16:23:48.352Z,5.40
2018-07-31T16:28:51.384Z,6.40
2018-07-31T16:33:54.261Z,5.10
2018-07-31T16:38:57.088Z,4.73
2018-07-31T16:43:59.930Z,4.50
2018-07-31T16:49:03.534Z,3.90
2018-07-31T16:54:06.447Z,4.03
2018-07-31T16:59:10.574Z,3.67
2018-07-31T17:04:13.411Z,4.00
2018-07-31T17:09:16.265Z,3.40
2018-07-31T17:14:19.319Z,3.53
2018-07-31T17:19:22.414Z,3.40
2018-07-31T17:24:26.029Z,4.00
2018-07-31T17:29:29.097Z,3.40
2018-07-31T17:34:32.047Z,3.83
2018-07-31T17:39:34.944Z,3.97
2018-07-31T17:44:38.746Z,3.70
2018-07-31T17:49:41.906Z,3.70
2018-07-31T17:54:47.939Z,3.30
2018-07-31T17:59:51.351Z,3.60
2018-07-31T18:04:56.237Z,3.83
2018-07-31T18:09:59.080Z,3.70
2018-07-31T18:15:05.160Z,3.60
2018-07-31T18:20:08.013Z,3.40
2018-07-31T18:25:18.976Z,3.67
2018-07-31T18:30:24.651Z,4.23
2018-07-31T18:35:27.916Z,3.87
2018-07-31T18:40:31.243Z,3.50
2018-07-31T18:45:34.292Z,3.10
2018-07-31T18:50:37.177Z,3.70
2018-07-31T18:55:40.065Z,3.33
2018-07-31T19:00:44.792Z,3.40
2018-07-31T19:05:47.961Z,3.63
2018-07-31T19:10:50.876Z,4.10
2018-07-31T19:15:53.714Z,4.70
2018-07-31T19:20:56.528Z,3.60
2018-07-31T19:26:00.142Z,3.40
2018-07-31T19:31:03.520Z,3.50
2018-07-31T19:36:08.149Z,3.40
2018-07-31T19:41:11.058Z,3.30
2018-07-31T19:46:14.109Z,3.10
2018-07-31T19:51:17.109Z,3.60
2018-07-31T19:56:28.125Z,3.27
2018-07-31T20:01:32.402Z,4.03
2018-07-31T20:06:36.320Z,4.20
2018-07-31T20:11:39.961Z,5.63
2018-07-31T20:16:43.003Z,4.07
2018-07-31T20:21:45.946Z,3.33
2018-07-31T20:26:48.913Z,4.57
2018-07-31T20:31:52.203Z,3.70
2018-07-31T20:36:55.011Z,3.43
2018-07-31T20:41:58.941Z,3.70
2018-07-31T20:47:01.943Z,4.20
2018-07-31T20:52:04.763Z,4.20
2018-07-31T20:57:07.745Z,3.27
2018-07-31T21:02:10.901Z,4.37
2018-07-31T21:07:14.871Z,4.40
2018-07-31T21:12:18.201Z,4.53
2018-07-31T21:17:21.066Z,4.57
2018-07-31T21:22:24.019Z,4.33
2018-07-31T21:27:26.966Z,4.83
2018-07-31T21:32:29.974Z,5.00
2018-07-31T21:37:33.138Z,4.20
2018-07-31T21:42:35.990Z,5.63
2018-07-31T21:47:40.531Z,3.83
2018-07-31T21:52:47.416Z,4.50
